This is the latest recevied weather packets stored in our database for station/object G6UYG-13. If no packets are shown the sender has not sent any weather packets the latest 10 day(s).
| Time | Temp. | Humidity | Pressure | Rain* | Wind** | Luminosity | Snow |
|---|---|---|---|---|---|---|---|
| 1777632955 | 17.78° C | 57% | 1017.5 hPa | 0 mm | - | 281 W/m² | - |
| 1777632535 | 18.33° C | 56% | 1017.5 hPa | 0 mm | - | 271 W/m² | - |
| 1777632115 | 18.89° C | 55% | 1017.6 hPa | 0 mm | - | 322 W/m² | - |
| 1777631695 | 18.89° C | 54% | 1017.4 hPa | 0 mm | - | 283 W/m² | - |
| 1777631275 | 19.44° C | 53% | 1017.4 hPa | 0 mm | - | 250 W/m² | - |
| 1777630855 | 19.44° C | 51% | 1017.5 hPa | 0 mm | - | 304 W/m² | - |
| 1777630435 | 19.44° C | 50% | 1017.4 hPa | 0 mm | - | 329 W/m² | - |
| 1777630015 | 20° C | 49% | 1017.4 hPa | 0 mm | - | 374 W/m² | - |
| 1777629595 | 20° C | 49% | 1017.3 hPa | 0 mm | - | 385 W/m² | - |
| 1777629175 | 20° C | 49% | 1017.3 hPa | 0 mm | - | 371 W/m² | - |
| 1777628755 | 20° C | 49% | 1017.2 hPa | 0 mm | - | 397 W/m² | - |
| 1777628335 | 20° C | 49% | 1017.1 hPa | 0 mm | - | 719 W/m² | - |
| 1777627915 | 19.44° C | 49% | 1017.2 hPa | 0 mm | - | 517 W/m² | - |
| 1777627495 | 19.44° C | 49% | 1017.1 hPa | 0 mm | - | 689 W/m² | - |
| 1777627075 | 18.89° C | 50% | 1017.2 hPa | 0 mm | - | 418 W/m² | - |
| 1777626655 | 18.33° C | 52% | 1017 hPa | 0 mm | - | 367 W/m² | - |
| 1777626235 | 17.78° C | 53% | 1017.2 hPa | 0 mm | - | 622 W/m² | - |
| 1777625815 | 17.22° C | 55% | 1017.1 hPa | 0 mm | - | 747 W/m² | - |
| 1777625395 | 16.67° C | 55% | 1017.3 hPa | 0 mm | - | 714 W/m² | - |
| 1777624975 | 16.11° C | 57% | 1017.3 hPa | 0 mm | - | 635 W/m² | - |
| 1777624555 | 15.56° C | 57% | 1017.2 hPa | 0 mm | - | 571 W/m² | - |
| 1777624135 | 15° C | 60% | 1017.3 hPa | 0 mm | - | 308 W/m² | - |
| 1777623715 | 14.44° C | 60% | 1017.4 hPa | 0 mm | - | 431 W/m² | - |
| 1777623295 | 13.89° C | 59% | 1017.4 hPa | 0 mm | - | 251 W/m² | - |
| 1777622875 | 13.89° C | 60% | 1017.4 hPa | 0 mm | - | 237 W/m² | - |
* Rain latest hour (hover to see other rain measurements)
** Current wind speed in m/s (hover to see current wind gust speed)